Sin Querer Tres — EA3126 — position and weather

sailwx.info

Track history (hours):
 
Tides and Currents Weather Stations Pressure Air Temp Water Temp Dewpoint Dewpoint Depression Visibility Wind Speed Wind Dir Waves Ship Positions

Sin Querer Tres

Last reported at 2018-Apr-19 23:58 UTC. Time now 2018-Apr-20 01:26 UTC.
Position N 44°34' W 001°50'.

Length 28 m.

Type: Fishing. MMSI: 224046190.

Date/timePositionNaut miles runAvg speedWind from/ knotsBaromVisibWave heightAir tempDewpointWater temp
2018-Apr-19 23:58N 44°34' W 001°50'61 9.5
2018-Apr-19 17:34N 43°36' W 002°16'110.9
2018-Apr-19 17:27N 43°34' W 002°17'510.8
2018-Apr-19 17:00N 43°30' W 002°19'611.1
2018-Apr-19 16:30N 43°25' W 002°22'3 0.7
2018-Apr-19 12:49N 43°23' W 002°24'411.0
2018-Apr-19 12:30N 43°26' W 002°22'4711.1
2018-Apr-19 08:13N 44°11' W 001°59'311.3
2018-Apr-19 07:55N 44°14' W 001°58'511.0
2018-Apr-19 07:28N 44°18' W 001°55'511.1
2018-Apr-19 07:00N 44°23' W 001°53'611.0
2018-Apr-19 06:28N 44°29' W 001°50'511.0
2018-Apr-19 06:00N 44°34' W 001°47'5 9.9
2018-Apr-19 05:30N 44°38' W 001°45'0 0.4
2018-Apr-19 05:00N 44°38' W 001°44'0 0.3
2018-Apr-19 04:31N 44°38' W 001°44'0 0.2
2018-Apr-19 04:00N 44°38' W 001°44'0 0.6
2018-Apr-19 03:30N 44°38' W 001°45'2 3.6
2018-Apr-19 03:00N 44°39' W 001°47'3 5.2
2018-Apr-19 02:30N 44°40' W 001°50'0 0.3
2018-Apr-19 01:59N 44°40' W 001°50'0 0.3
2018-Apr-19 01:30N 44°40' W 001°50'0 0.2
2018-Apr-19 00:07N 44°40' W 001°50'0 3.7
2018-Apr-19 00:00N 44°39' W 001°50'710.5
2018-Apr-18 23:21N 44°33' W 001°54'6610.6
2018-Apr-18 17:08N 43°30' W 002°19'511.1
2018-Apr-18 16:40N 43°25' W 002°22'211.1
2018-Apr-18 16:31N 43°23' W 002°22'1 0.5
2018-Apr-18 14:07N 43°23' W 002°24'110.5
2018-Apr-18 13:58N 43°24' W 002°23'510.8
2018-Apr-18 13:30N 43°29' W 002°21'5810.6
2018-Apr-18 08:04N 44°24' W 001°56'110.3
2018-Apr-18 07:58N 44°25' W 001°56'3 3.1
2018-Apr-18 06:59N 44°27' W 001°54'510.1
2018-Apr-18 06:30N 44°32' W 001°51'1 2.3
2018-Apr-18 06:00N 44°33' W 001°50'0 0.5
2018-Apr-18 05:29N 44°33' W 001°50'0 0.3
2018-Apr-18 05:00N 44°33' W 001°50'0 0.2
2018-Apr-18 04:31N 44°33' W 001°50'4 7.8
2018-Apr-18 04:00N 44°29' W 001°50'2 4.9
2018-Apr-18 03:30N 44°27' W 001°51'5 9.3
2018-Apr-18 03:00N 44°24' W 001°46'1 1.3
2018-Apr-18 02:30N 44°23' W 001°46'3 6.3
2018-Apr-18 02:01N 44°25' W 001°50'4 7.7
2018-Apr-18 01:31N 44°27' W 001°45'0 1.0
2018-Apr-18 01:00N 44°26' W 001°44'0 0.0
2018-Apr-18 00:30N 44°26' W 001°44'0 0.3
2018-Apr-18 00:00N 44°26' W 001°44'0 0.3
2018-Apr-17 23:30N 44°26' W 001°44'0 0.3
2018-Apr-17 23:00N 44°26' W 001°44'2 3.7
2018-Apr-17 22:30N 44°26' W 001°47'6 8.2
2018-Apr-17 21:45N 44°25' W 001°55'3 6.8
2018-Apr-17 21:23N 44°26' W 001°59'3 5.7
2018-Apr-17 20:51N 44°26' W 001°55'3 4.7
2018-Apr-17 20:17N 44°24' W 001°54'2 8.3
2018-Apr-17 20:00N 44°22' W 001°53'4 8.8
2018-Apr-17 19:30N 44°17' W 001°51'29 1.5
2018-Apr-17 00:29N 43°49' W 001°48'0 0.5
2018-Apr-16 23:56N 43°49' W 001°48'0 0.6
2018-Apr-16 23:30N 43°49' W 001°48'0 0.5
2018-Apr-16 22:57N 43°49' W 001°47'0 0.4
2018-Apr-16 22:30N 43°49' W 001°47'0 0.4
2018-Apr-16 22:00N 43°49' W 001°47'0 0.4
2018-Apr-16 21:30N 43°49' W 001°47'  
2018-Apr-13 08:07N 43°23' W 002°23'0 0.4
2018-Apr-13 08:00N 43°23' W 002°24'2 4.1
2018-Apr-13 07:27N 43°24' W 002°21'5 7.3
2018-Apr-13 06:44N 43°22' W 002°14'2 7.2
2018-Apr-13 06:25N 43°22' W 002°17'2 3.7
2018-Apr-13 05:59N 43°23' W 002°15'14 2.3
2018-Apr-12 23:42N 43°23' W 001°56'1 4.0
2018-Apr-12 23:30N 43°22' W 001°55'2 3.9
2018-Apr-12 23:00N 43°24' W 001°55'4 4.3
2018-Apr-12 22:10N 43°21' W 001°56'6 0.8
2018-Apr-12 15:02N 43°26' W 001°55'210.2
2018-Apr-12 14:50N 43°24' W 001°56'2 6.9
2018-Apr-12 14:30N 43°22' W 001°57'3 0.9
2018-Apr-12 11:28N 43°19' W 001°55'0 0.0
2018-Apr-12 06:28N 43°20' W 001°55'0 0.0
2018-Apr-12 05:17N 43°20' W 001°55'0 0.0
2018-Apr-12 02:35N 43°20' W 001°55'0 0.0
2018-Apr-12 02:22N 43°20' W 001°55'0 0.0
2018-Apr-12 00:56N 43°20' W 001°55'0 0.0
2018-Apr-11 23:22N 43°20' W 001°55'0 0.0
2018-Apr-11 20:24N 43°20' W 001°55'0 0.0
2018-Apr-11 13:20N 43°20' W 001°55'0 0.0
2018-Apr-11 12:53N 43°20' W 001°55'0 0.0
2018-Apr-11 07:49N 43°20' W 001°55'0 0.0
2018-Apr-11 07:21N 43°19' W 001°55'0 0.0
2018-Apr-11 04:48N 43°20' W 001°55'9 3.4
2018-Apr-11 02:07N 43°19' W 002°08'1 9.7
2018-Apr-11 02:00N 43°20' W 002°07'26 2.7
2018-Apr-10 16:29N 43°39' W 001°43'4 9.3
2018-Apr-10 16:00N 43°36' W 001°46'5 9.5
2018-Apr-10 15:28N 43°31' W 001°50'5 9.6
2018-Apr-10 14:58N 43°27' W 001°52'510.0
2018-Apr-10 14:30N 43°22' W 001°55'3 5.9
2018-Apr-10 14:00N 43°20' W 001°55'0 0.0
2018-Apr-10 13:28N 43°20' W 001°55'0 0.0
2018-Apr-10 12:57N 43°20' W 001°55'0 0.0
2018-Apr-10 12:23N 43°20' W 001°55'0 0.0
2018-Apr-10 12:00N 43°20' W 001°55'0 0.0
2018-Apr-10 11:31N 43°20' W 001°55'0 0.0
2018-Apr-10 10:59N 43°20' W 001°55'0 0.0
2018-Apr-10 10:27N 43°20' W 001°55'0 0.0
2018-Apr-10 09:59N 43°20' W 001°55'0 0.0
2018-Apr-10 09:31N 43°20' W 001°55'0 0.0
2018-Apr-10 09:00N 43°20' W 001°55'8 0.9
2018-Apr-10 00:09N 43°27' W 001°51'  
Track history (hours):
 
Tides and Currents Weather Stations Pressure Air Temp Water Temp Dewpoint Dewpoint Depression Visibility Wind Speed Wind Dir Waves Ship Positions

Sin Querer Tres

Last reported at 2018-Apr-19 23:58 UTC. Time now 2018-Apr-20 01:26 UTC.
Position N 44°34' W 001°50'.

Length 28 m.

Type: Fishing. MMSI: 224046190.

Date/timePositionNaut miles runAvg speedWind from/ knotsBaromVisibWave heightAir tempDewpointWater temp
2018-Apr-19 23:58N 44°34' W 001°50'61 9.5
2018-Apr-19 17:34N 43°36' W 002°16'110.9
2018-Apr-19 17:27N 43°34' W 002°17'510.8
2018-Apr-19 17:00N 43°30' W 002°19'611.1
2018-Apr-19 16:30N 43°25' W 002°22'3 0.7
2018-Apr-19 12:49N 43°23' W 002°24'411.0
2018-Apr-19 12:30N 43°26' W 002°22'4711.1
2018-Apr-19 08:13N 44°11' W 001°59'311.3
2018-Apr-19 07:55N 44°14' W 001°58'511.0
2018-Apr-19 07:28N 44°18' W 001°55'511.1
2018-Apr-19 07:00N 44°23' W 001°53'611.0
2018-Apr-19 06:28N 44°29' W 001°50'511.0
2018-Apr-19 06:00N 44°34' W 001°47'5 9.9
2018-Apr-19 05:30N 44°38' W 001°45'0 0.4
2018-Apr-19 05:00N 44°38' W 001°44'0 0.3
2018-Apr-19 04:31N 44°38' W 001°44'0 0.2
2018-Apr-19 04:00N 44°38' W 001°44'0 0.6
2018-Apr-19 03:30N 44°38' W 001°45'2 3.6
2018-Apr-19 03:00N 44°39' W 001°47'3 5.2
2018-Apr-19 02:30N 44°40' W 001°50'0 0.3
2018-Apr-19 01:59N 44°40' W 001°50'0 0.3
2018-Apr-19 01:30N 44°40' W 001°50'0 0.2
2018-Apr-19 00:07N 44°40' W 001°50'0 3.7
2018-Apr-19 00:00N 44°39' W 001°50'710.5
2018-Apr-18 23:21N 44°33' W 001°54'6610.6
2018-Apr-18 17:08N 43°30' W 002°19'511.1
2018-Apr-18 16:40N 43°25' W 002°22'211.1
2018-Apr-18 16:31N 43°23' W 002°22'1 0.5
2018-Apr-18 14:07N 43°23' W 002°24'110.5
2018-Apr-18 13:58N 43°24' W 002°23'510.8
2018-Apr-18 13:30N 43°29' W 002°21'5810.6
2018-Apr-18 08:04N 44°24' W 001°56'110.3
2018-Apr-18 07:58N 44°25' W 001°56'3 3.1
2018-Apr-18 06:59N 44°27' W 001°54'510.1
2018-Apr-18 06:30N 44°32' W 001°51'1 2.3
2018-Apr-18 06:00N 44°33' W 001°50'0 0.5
2018-Apr-18 05:29N 44°33' W 001°50'0 0.3
2018-Apr-18 05:00N 44°33' W 001°50'0 0.2
2018-Apr-18 04:31N 44°33' W 001°50'4 7.8
2018-Apr-18 04:00N 44°29' W 001°50'2 4.9
2018-Apr-18 03:30N 44°27' W 001°51'5 9.3
2018-Apr-18 03:00N 44°24' W 001°46'1 1.3
2018-Apr-18 02:30N 44°23' W 001°46'3 6.3
2018-Apr-18 02:01N 44°25' W 001°50'4 7.7
2018-Apr-18 01:31N 44°27' W 001°45'0 1.0
2018-Apr-18 01:00N 44°26' W 001°44'0 0.0
2018-Apr-18 00:30N 44°26' W 001°44'0 0.3
2018-Apr-18 00:00N 44°26' W 001°44'0 0.3
2018-Apr-17 23:30N 44°26' W 001°44'0 0.3
2018-Apr-17 23:00N 44°26' W 001°44'2 3.7
2018-Apr-17 22:30N 44°26' W 001°47'6 8.2
2018-Apr-17 21:45N 44°25' W 001°55'3 6.8
2018-Apr-17 21:23N 44°26' W 001°59'3 5.7
2018-Apr-17 20:51N 44°26' W 001°55'3 4.7
2018-Apr-17 20:17N 44°24' W 001°54'2 8.3
2018-Apr-17 20:00N 44°22' W 001°53'4 8.8
2018-Apr-17 19:30N 44°17' W 001°51'29 1.5
2018-Apr-17 00:29N 43°49' W 001°48'0 0.5
2018-Apr-16 23:56N 43°49' W 001°48'0 0.6
2018-Apr-16 23:30N 43°49' W 001°48'0 0.5
2018-Apr-16 22:57N 43°49' W 001°47'0 0.4
2018-Apr-16 22:30N 43°49' W 001°47'0 0.4
2018-Apr-16 22:00N 43°49' W 001°47'0 0.4
2018-Apr-16 21:30N 43°49' W 001°47'  
2018-Apr-13 08:07N 43°23' W 002°23'0 0.4
2018-Apr-13 08:00N 43°23' W 002°24'2 4.1
2018-Apr-13 07:27N 43°24' W 002°21'5 7.3
2018-Apr-13 06:44N 43°22' W 002°14'2 7.2
2018-Apr-13 06:25N 43°22' W 002°17'2 3.7
2018-Apr-13 05:59N 43°23' W 002°15'14 2.3
2018-Apr-12 23:42N 43°23' W 001°56'1 4.0
2018-Apr-12 23:30N 43°22' W 001°55'2 3.9
2018-Apr-12 23:00N 43°24' W 001°55'4 4.3
2018-Apr-12 22:10N 43°21' W 001°56'6 0.8
2018-Apr-12 15:02N 43°26' W 001°55'210.2
2018-Apr-12 14:50N 43°24' W 001°56'2 6.9
2018-Apr-12 14:30N 43°22' W 001°57'3 0.9
2018-Apr-12 11:28N 43°19' W 001°55'0 0.0
2018-Apr-12 06:28N 43°20' W 001°55'0 0.0
2018-Apr-12 05:17N 43°20' W 001°55'0 0.0
2018-Apr-12 02:35N 43°20' W 001°55'0 0.0
2018-Apr-12 02:22N 43°20' W 001°55'0 0.0
2018-Apr-12 00:56N 43°20' W 001°55'0 0.0
2018-Apr-11 23:22N 43°20' W 001°55'0 0.0
2018-Apr-11 20:24N 43°20' W 001°55'0 0.0
2018-Apr-11 13:20N 43°20' W 001°55'0 0.0
2018-Apr-11 12:53N 43°20' W 001°55'0 0.0
2018-Apr-11 07:49N 43°20' W 001°55'0 0.0
2018-Apr-11 07:21N 43°19' W 001°55'0 0.0
2018-Apr-11 04:48N 43°20' W 001°55'9 3.4
2018-Apr-11 02:07N 43°19' W 002°08'1 9.7
2018-Apr-11 02:00N 43°20' W 002°07'26 2.7
2018-Apr-10 16:29N 43°39' W 001°43'4 9.3
2018-Apr-10 16:00N 43°36' W 001°46'5 9.5
2018-Apr-10 15:28N 43°31' W 001°50'5 9.6
2018-Apr-10 14:58N 43°27' W 001°52'510.0
2018-Apr-10 14:30N 43°22' W 001°55'3 5.9
2018-Apr-10 14:00N 43°20' W 001°55'0 0.0
2018-Apr-10 13:28N 43°20' W 001°55'0 0.0
2018-Apr-10 12:57N 43°20' W 001°55'0 0.0
2018-Apr-10 12:23N 43°20' W 001°55'0 0.0
2018-Apr-10 12:00N 43°20' W 001°55'0 0.0
2018-Apr-10 11:31N 43°20' W 001°55'0 0.0
2018-Apr-10 10:59N 43°20' W 001°55'0 0.0
2018-Apr-10 10:27N 43°20' W 001°55'0 0.0
2018-Apr-10 09:59N 43°20' W 001°55'0 0.0
2018-Apr-10 09:31N 43°20' W 001°55'0 0.0
2018-Apr-10 09:00N 43°20' W 001°55'8 0.9
2018-Apr-10 00:09N 43°27' W 001°51'  

Dump ship's entire track history